sensor_id;sensor_type;location;lat;lon;timestamp;pressure;altitude;pressure_sealevel;temperature;humidity
39177;BME280;24904;52.208;21.192;2023-08-24T00:02:24;100725.37;;;16.68;77.29
39177;BME280;24904;52.208;21.192;2023-08-24T00:07:27;100724.21;;;16.73;77.63
39177;BME280;24904;52.208;21.192;2023-08-24T00:12:32;100724.48;;;16.79;77.72
39177;BME280;24904;52.208;21.192;2023-08-24T00:17:36;100724.21;;;16.83;77.75
39177;BME280;24904;52.208;21.192;2023-08-24T00:22:39;100721.01;;;16.88;77.96
39177;BME280;24904;52.208;21.192;2023-08-24T00:27:42;100714.13;;;16.95;77.88
39177;BME280;24904;52.208;21.192;2023-08-24T00:32:46;100716.15;;;16.99;77.85
39177;BME280;24904;52.208;21.192;2023-08-24T00:37:49;100715.58;;;17.00;77.44
39177;BME280;24904;52.208;21.192;2023-08-24T00:42:52;100716.56;;;16.97;77.49
39177;BME280;24904;52.208;21.192;2023-08-24T00:47:55;100714.79;;;16.92;77.27
39177;BME280;24904;52.208;21.192;2023-08-24T00:52:59;100710.65;;;16.84;77.32
39177;BME280;24904;52.208;21.192;2023-08-24T00:58:03;100712.02;;;16.82;77.36
39177;BME280;24904;52.208;21.192;2023-08-24T01:03:06;100714.38;;;16.77;77.46
39177;BME280;24904;52.208;21.192;2023-08-24T01:08:09;100713.45;;;16.72;77.40
39177;BME280;24904;52.208;21.192;2023-08-24T01:13:18;100712.14;;;16.66;77.49
39177;BME280;24904;52.208;21.192;2023-08-24T01:18:25;100712.80;;;16.64;77.79
39177;BME280;24904;52.208;21.192;2023-08-24T01:23:36;100710.77;;;16.59;77.92
39177;BME280;24904;52.208;21.192;2023-08-24T01:28:40;100709.78;;;16.53;77.93
39177;BME280;24904;52.208;21.192;2023-08-24T01:33:45;100709.71;;;16.51;78.10
39177;BME280;24904;52.208;21.192;2023-08-24T01:39:02;100711.05;;;16.53;78.39
39177;BME280;24904;52.208;21.192;2023-08-24T01:44:12;100705.02;;;16.54;78.57
39177;BME280;24904;52.208;21.192;2023-08-24T01:49:17;100705.81;;;16.54;78.70
39177;BME280;24904;52.208;21.192;2023-08-24T01:54:20;100700.66;;;16.54;78.61
39177;BME280;24904;52.208;21.192;2023-08-24T01:59:23;100695.20;;;16.54;78.66
39177;BME280;24904;52.208;21.192;2023-08-24T02:04:26;100694.21;;;16.49;78.47
39177;BME280;24904;52.208;21.192;2023-08-24T02:09:30;100699.22;;;16.45;78.44
39177;BME280;24904;52.208;21.192;2023-08-24T02:14:33;100690.84;;;16.44;78.76
39177;BME280;24904;52.208;21.192;2023-08-24T02:19:37;100691.32;;;16.44;78.76
39177;BME280;24904;52.208;21.192;2023-08-24T02:24:40;100682.89;;;16.40;78.63
39177;BME280;24904;52.208;21.192;2023-08-24T02:29:43;100681.40;;;16.37;78.65
39177;BME280;24904;52.208;21.192;2023-08-24T02:34:48;100675.81;;;16.33;78.75
39177;BME280;24904;52.208;21.192;2023-08-24T02:39:51;100675.80;;;16.31;78.70
39177;BME280;24904;52.208;21.192;2023-08-24T02:44:54;100673.96;;;16.25;78.65
39177;BME280;24904;52.208;21.192;2023-08-24T02:49:57;100680.27;;;16.16;78.65
39177;BME280;24904;52.208;21.192;2023-08-24T02:55:00;100686.20;;;16.08;78.89
39177;BME280;24904;52.208;21.192;2023-08-24T03:00:04;100684.79;;;16.05;79.00
39177;BME280;24904;52.208;21.192;2023-08-24T03:05:09;100680.13;;;16.02;79.36
39177;BME280;24904;52.208;21.192;2023-08-24T03:10:13;100684.02;;;15.99;79.45
39177;BME280;24904;52.208;21.192;2023-08-24T03:15:16;100682.83;;;16.01;79.48
39177;BME280;24904;52.208;21.192;2023-08-24T03:20:20;100685.08;;;15.97;79.38
39177;BME280;24904;52.208;21.192;2023-08-24T03:25:24;100689.06;;;15.90;79.39
39177;BME280;24904;52.208;21.192;2023-08-24T03:30:28;100687.80;;;15.90;79.60
39177;BME280;24904;52.208;21.192;2023-08-24T03:35:33;100681.72;;;15.90;79.67
39177;BME280;24904;52.208;21.192;2023-08-24T03:40:36;100679.49;;;15.91;79.73
39177;BME280;24904;52.208;21.192;2023-08-24T03:45:40;100674.60;;;15.91;79.92
39177;BME280;24904;52.208;21.192;2023-08-24T03:50:44;100668.41;;;15.92;80.06
39177;BME280;24904;52.208;21.192;2023-08-24T03:55:49;100665.89;;;15.91;80.29
39177;BME280;24904;52.208;21.192;2023-08-24T04:00:53;100674.44;;;15.88;80.21
39177;BME280;24904;52.208;21.192;2023-08-24T04:05:58;100674.19;;;15.91;80.55
39177;BME280;24904;52.208;21.192;2023-08-24T04:11:01;100676.09;;;15.91;80.54
39177;BME280;24904;52.208;21.192;2023-08-24T04:16:04;100682.42;;;15.93;80.52
39177;BME280;24904;52.208;21.192;2023-08-24T04:21:07;100687.61;;;15.96;80.75
39177;BME280;24904;52.208;21.192;2023-08-24T04:26:10;100689.17;;;15.99;80.71
39177;BME280;24904;52.208;21.192;2023-08-24T04:31:13;100691.59;;;16.04;80.98
39177;BME280;24904;52.208;21.192;2023-08-24T04:36:16;100691.47;;;16.11;80.99
39177;BME280;24904;52.208;21.192;2023-08-24T04:41:19;100696.56;;;16.19;81.03
39177;BME280;24904;52.208;21.192;2023-08-24T04:46:22;100693.36;;;16.25;81.19
39177;BME280;24904;52.208;21.192;2023-08-24T04:51:25;100698.77;;;16.34;81.12
39177;BME280;24904;52.208;21.192;2023-08-24T04:56:30;100695.75;;;16.44;81.24
39177;BME280;24904;52.208;21.192;2023-08-24T05:01:33;100695.02;;;16.55;81.21
39177;BME280;24904;52.208;21.192;2023-08-24T05:06:36;100700.19;;;16.67;81.15
39177;BME280;24904;52.208;21.192;2023-08-24T05:11:39;100697.45;;;16.81;80.96
39177;BME280;24904;52.208;21.192;2023-08-24T05:16:42;100700.27;;;16.93;80.77
39177;BME280;24904;52.208;21.192;2023-08-24T05:21:45;100707.42;;;17.08;80.46
39177;BME280;24904;52.208;21.192;2023-08-24T05:26:48;100710.27;;;17.23;80.04
39177;BME280;24904;52.208;21.192;2023-08-24T05:31:51;100709.41;;;17.36;79.86
39177;BME280;24904;52.208;21.192;2023-08-24T05:36:54;100709.08;;;17.51;79.62
39177;BME280;24904;52.208;21.192;2023-08-24T05:41:57;100706.54;;;17.65;79.42
39177;BME280;24904;52.208;21.192;2023-08-24T05:47:00;100705.23;;;17.83;79.04
39177;BME280;24904;52.208;21.192;2023-08-24T05:52:04;100705.48;;;17.99;78.76
39177;BME280;24904;52.208;21.192;2023-08-24T05:57:07;100699.83;;;18.17;78.31
39177;BME280;24904;52.208;21.192;2023-08-24T06:02:10;100703.70;;;18.33;77.90
39177;BME280;24904;52.208;21.192;2023-08-24T06:07:13;100702.01;;;18.50;77.76
39177;BME280;24904;52.208;21.192;2023-08-24T06:12:16;100697.28;;;18.69;77.25
39177;BME280;24904;52.208;21.192;2023-08-24T06:17:19;100700.29;;;18.88;76.51
39177;BME280;24904;52.208;21.192;2023-08-24T06:22:22;100701.72;;;19.06;75.82
39177;BME280;24904;52.208;21.192;2023-08-24T06:27:25;100699.70;;;19.20;75.46
39177;BME280;24904;52.208;21.192;2023-08-24T06:32:28;100701.23;;;19.36;74.96
39177;BME280;24904;52.208;21.192;2023-08-24T06:37:31;100698.66;;;19.53;74.86
39177;BME280;24904;52.208;21.192;2023-08-24T06:42:34;100690.30;;;19.73;74.40
39177;BME280;24904;52.208;21.192;2023-08-24T06:47:37;100696.77;;;19.95;73.90
39177;BME280;24904;52.208;21.192;2023-08-24T06:52:40;100696.40;;;20.18;72.86
39177;BME280;24904;52.208;21.192;2023-08-24T06:57:47;100698.02;;;20.41;72.48
39177;BME280;24904;52.208;21.192;2023-08-24T07:02:50;100699.85;;;20.64;71.38
39177;BME280;24904;52.208;21.192;2023-08-24T07:07:53;100699.20;;;20.84;70.23
39177;BME280;24904;52.208;21.192;2023-08-24T07:12:56;100707.65;;;21.05;69.87
39177;BME280;24904;52.208;21.192;2023-08-24T07:18:00;100711.79;;;21.26;68.43
39177;BME280;24904;52.208;21.192;2023-08-24T07:23:04;100715.84;;;21.48;68.14
39177;BME280;24904;52.208;21.192;2023-08-24T07:28:07;100719.17;;;21.65;66.56
39177;BME280;24904;52.208;21.192;2023-08-24T07:33:11;100718.79;;;21.84;65.58
39177;BME280;24904;52.208;21.192;2023-08-24T07:38:14;100720.29;;;22.06;64.84
39177;BME280;24904;52.208;21.192;2023-08-24T07:43:17;100721.33;;;22.27;63.44
39177;BME280;24904;52.208;21.192;2023-08-24T07:48:20;100723.00;;;22.47;62.47
39177;BME280;24904;52.208;21.192;2023-08-24T07:53:23;100718.77;;;22.64;62.66
39177;BME280;24904;52.208;21.192;2023-08-24T07:58:26;100713.69;;;22.83;62.14
39177;BME280;24904;52.208;21.192;2023-08-24T08:03:29;100708.28;;;22.98;60.92
39177;BME280;24904;52.208;21.192;2023-08-24T08:08:33;100706.89;;;23.15;60.75
39177;BME280;24904;52.208;21.192;2023-08-24T08:13:36;100704.11;;;23.37;60.60
39177;BME280;24904;52.208;21.192;2023-08-24T08:18:39;100704.82;;;23.57;59.59
39177;BME280;24904;52.208;21.192;2023-08-24T08:23:42;100701.25;;;23.72;58.58
39177;BME280;24904;52.208;21.192;2023-08-24T08:28:45;100696.77;;;23.84;57.42
39177;BME280;24904;52.208;21.192;2023-08-24T08:33:48;100699.94;;;23.99;57.00
39177;BME280;24904;52.208;21.192;2023-08-24T08:38:51;100703.06;;;24.16;56.40
39177;BME280;24904;52.208;21.192;2023-08-24T08:43:55;100698.82;;;24.28;55.77
39177;BME280;24904;52.208;21.192;2023-08-24T08:48:59;100694.33;;;24.38;54.88
39177;BME280;24904;52.208;21.192;2023-08-24T08:54:03;100693.02;;;24.43;54.43
39177;BME280;24904;52.208;21.192;2023-08-24T08:59:09;100693.35;;;24.50;54.68
39177;BME280;24904;52.208;21.192;2023-08-24T09:04:14;100694.99;;;24.57;54.14
39177;BME280;24904;52.208;21.192;2023-08-24T09:09:17;100691.19;;;24.58;53.53
39177;BME280;24904;52.208;21.192;2023-08-24T09:14:20;100690.94;;;24.56;53.78
39177;BME280;24904;52.208;21.192;2023-08-24T09:19:28;100690.34;;;24.55;53.39
39177;BME280;24904;52.208;21.192;2023-08-24T09:24:33;100683.34;;;24.50;53.23
39177;BME280;24904;52.208;21.192;2023-08-24T09:29:37;100687.38;;;24.45;53.07
39177;BME280;24904;52.208;21.192;2023-08-24T09:34:40;100683.95;;;24.48;53.36
39177;BME280;24904;52.208;21.192;2023-08-24T09:39:44;100673.13;;;24.58;53.81
39177;BME280;24904;52.208;21.192;2023-08-24T09:44:47;100672.11;;;24.74;53.06
39177;BME280;24904;52.208;21.192;2023-08-24T09:56:06;100664.59;;;25.08;51.09
39177;BME280;24904;52.208;21.192;2023-08-24T10:01:11;100661.41;;;25.23;51.47
39177;BME280;24904;52.208;21.192;2023-08-24T10:06:14;100662.42;;;25.17;49.82
39177;BME280;24904;52.208;21.192;2023-08-24T10:11:26;100662.88;;;24.99;50.12
39177;BME280;24904;52.208;21.192;2023-08-24T10:16:30;100667.70;;;24.84;49.92
39177;BME280;24904;52.208;21.192;2023-08-24T10:21:41;100664.14;;;24.81;50.12
39177;BME280;24904;52.208;21.192;2023-08-24T10:26:45;100666.20;;;24.85;50.12
39177;BME280;24904;52.208;21.192;2023-08-24T10:31:49;100656.25;;;24.96;50.83
39177;BME280;24904;52.208;21.192;2023-08-24T10:36:52;100656.55;;;25.15;50.74
39177;BME280;24904;52.208;21.192;2023-08-24T10:41:55;100656.42;;;25.40;50.47
39177;BME280;24904;52.208;21.192;2023-08-24T10:47:10;100657.00;;;25.60;50.22
39177;BME280;24904;52.208;21.192;2023-08-24T10:52:21;100658.91;;;25.61;49.48
39177;BME280;24904;52.208;21.192;2023-08-24T10:57:25;100655.42;;;25.55;50.66
39177;BME280;24904;52.208;21.192;2023-08-24T11:02:29;100655.58;;;25.55;51.12
39177;BME280;24904;52.208;21.192;2023-08-24T11:07:32;100651.70;;;25.55;52.24
39177;BME280;24904;52.208;21.192;2023-08-24T11:13:05;100648.98;;;25.60;50.76
39177;BME280;24904;52.208;21.192;2023-08-24T11:18:22;100644.64;;;25.62;49.51
39177;BME280;24904;52.208;21.192;2023-08-24T11:23:26;100640.88;;;25.65;50.00
39177;BME280;24904;52.208;21.192;2023-08-24T11:28:30;100636.84;;;25.75;49.69
39177;BME280;24904;52.208;21.192;2023-08-24T11:33:34;100636.95;;;25.84;49.99
39177;BME280;24904;52.208;21.192;2023-08-24T11:38:38;100636.79;;;25.94;48.69
39177;BME280;24904;52.208;21.192;2023-08-24T11:43:42;100629.59;;;25.95;48.23
39177;BME280;24904;52.208;21.192;2023-08-24T11:48:46;100629.40;;;26.00;48.85
39177;BME280;24904;52.208;21.192;2023-08-24T11:53:49;100623.33;;;26.03;48.45
39177;BME280;24904;52.208;21.192;2023-08-24T11:58:53;100616.23;;;26.03;48.12
39177;BME280;24904;52.208;21.192;2023-08-24T12:03:56;100616.25;;;25.99;47.54
39177;BME280;24904;52.208;21.192;2023-08-24T12:08:59;100603.04;;;26.00;47.57
39177;BME280;24904;52.208;21.192;2023-08-24T12:14:03;100601.20;;;26.03;48.02
39177;BME280;24904;52.208;21.192;2023-08-24T12:19:08;100593.33;;;26.06;47.08
39177;BME280;24904;52.208;21.192;2023-08-24T12:24:14;100591.54;;;26.09;47.50
39177;BME280;24904;52.208;21.192;2023-08-24T12:29:19;100582.98;;;26.14;47.26
39177;BME280;24904;52.208;21.192;2023-08-24T12:34:22;100577.57;;;26.16;45.97
39177;BME280;24904;52.208;21.192;2023-08-24T12:39:25;100571.41;;;26.11;45.97
39177;BME280;24904;52.208;21.192;2023-08-24T12:44:28;100574.05;;;26.14;46.52
39177;BME280;24904;52.208;21.192;2023-08-24T12:49:31;100574.75;;;26.16;46.97
39177;BME280;24904;52.208;21.192;2023-08-24T12:54:34;100570.75;;;26.16;46.44
39177;BME280;24904;52.208;21.192;2023-08-24T12:59:38;100569.19;;;26.14;46.01
39177;BME280;24904;52.208;21.192;2023-08-24T13:04:41;100569.29;;;26.07;45.55
39177;BME280;24904;52.208;21.192;2023-08-24T13:09:44;100561.73;;;25.96;45.57
39177;BME280;24904;52.208;21.192;2023-08-24T13:14:48;100561.59;;;25.91;45.58
39177;BME280;24904;52.208;21.192;2023-08-24T13:19:52;100555.67;;;25.86;45.70
39177;BME280;24904;52.208;21.192;2023-08-24T13:24:57;100546.48;;;25.73;45.70
39177;BME280;24904;52.208;21.192;2023-08-24T13:30:05;100543.88;;;25.59;45.78
39177;BME280;24904;52.208;21.192;2023-08-24T13:35:10;100549.16;;;25.47;45.74
39177;BME280;24904;52.208;21.192;2023-08-24T13:40:14;100547.73;;;25.39;45.82
39177;BME280;24904;52.208;21.192;2023-08-24T13:45:18;100544.19;;;25.34;45.98
39177;BME280;24904;52.208;21.192;2023-08-24T13:50:23;100541.55;;;25.26;46.37
39177;BME280;24904;52.208;21.192;2023-08-24T13:55:27;100535.39;;;25.19;47.35
39177;BME280;24904;52.208;21.192;2023-08-24T14:00:32;100530.68;;;25.10;47.34
39177;BME280;24904;52.208;21.192;2023-08-24T14:05:40;100527.09;;;25.01;49.71
39177;BME280;24904;52.208;21.192;2023-08-24T14:10:47;100522.92;;;24.86;49.90
39177;BME280;24904;52.208;21.192;2023-08-24T14:19:38;100517.37;;;24.83;50.50
39177;BME280;24904;52.208;21.192;2023-08-24T14:24:43;100517.47;;;24.82;50.44
39177;BME280;24904;52.208;21.192;2023-08-24T14:29:46;100513.77;;;24.88;49.35
39177;BME280;24904;52.208;21.192;2023-08-24T14:34:51;100515.67;;;24.94;48.72
39177;BME280;24904;52.208;21.192;2023-08-24T14:39:57;100523.99;;;25.00;48.26
39177;BME280;24904;52.208;21.192;2023-08-24T14:45:02;100527.78;;;25.03;48.38
39177;BME280;24904;52.208;21.192;2023-08-24T14:50:08;100522.54;;;25.02;48.76
39177;BME280;24904;52.208;21.192;2023-08-24T14:55:14;100514.36;;;25.00;48.80
39177;BME280;24904;52.208;21.192;2023-08-24T15:00:21;100513.82;;;24.97;48.33
39177;BME280;24904;52.208;21.192;2023-08-24T15:05:26;100518.05;;;24.99;48.23
39177;BME280;24904;52.208;21.192;2023-08-24T15:10:31;100513.80;;;25.00;47.77
39177;BME280;24904;52.208;21.192;2023-08-24T15:15:37;100513.05;;;24.98;48.09
39177;BME280;24904;52.208;21.192;2023-08-24T15:20:42;100512.09;;;24.89;47.98
39177;BME280;24904;52.208;21.192;2023-08-24T15:25:47;100504.59;;;24.80;48.80
39177;BME280;24904;52.208;21.192;2023-08-24T15:30:52;100503.10;;;24.65;50.03
39177;BME280;24904;52.208;21.192;2023-08-24T15:35:57;100497.31;;;24.49;50.58
39177;BME280;24904;52.208;21.192;2023-08-24T15:41:02;100498.32;;;24.35;51.03
39177;BME280;24904;52.208;21.192;2023-08-24T15:46:07;100492.42;;;24.24;51.49
39177;BME280;24904;52.208;21.192;2023-08-24T15:51:12;100490.85;;;24.18;51.76
39177;BME280;24904;52.208;21.192;2023-08-24T15:56:17;100487.15;;;24.15;52.05
39177;BME280;24904;52.208;21.192;2023-08-24T16:01:22;100484.23;;;24.21;51.71
39177;BME280;24904;52.208;21.192;2023-08-24T16:06:27;100476.19;;;24.24;53.22
39177;BME280;24904;52.208;21.192;2023-08-24T16:11:32;100476.54;;;24.23;52.95
39177;BME280;24904;52.208;21.192;2023-08-24T16:16:37;100471.23;;;24.21;53.56
39177;BME280;24904;52.208;21.192;2023-08-24T16:21:42;100473.21;;;24.18;53.10
39177;BME280;24904;52.208;21.192;2023-08-24T16:26:47;100478.36;;;24.16;54.00
39177;BME280;24904;52.208;21.192;2023-08-24T16:31:52;100465.71;;;24.10;54.87
39177;BME280;24904;52.208;21.192;2023-08-24T16:36:58;100460.02;;;24.05;54.11
39177;BME280;24904;52.208;21.192;2023-08-24T16:42:06;100470.42;;;24.03;54.30
39177;BME280;24904;52.208;21.192;2023-08-24T16:47:11;100464.72;;;23.92;54.45
39177;BME280;24904;52.208;21.192;2023-08-24T16:52:16;100460.40;;;23.80;54.59
39177;BME280;24904;52.208;21.192;2023-08-24T16:57:23;100470.04;;;23.68;55.08
39177;BME280;24904;52.208;21.192;2023-08-24T17:02:28;100474.16;;;23.55;55.55
39177;BME280;24904;52.208;21.192;2023-08-24T17:07:33;100464.85;;;23.42;55.53
39177;BME280;24904;52.208;21.192;2023-08-24T17:12:38;100459.58;;;23.31;54.76
39177;BME280;24904;52.208;21.192;2023-08-24T17:17:43;100459.02;;;23.21;54.54
39177;BME280;24904;52.208;21.192;2023-08-24T17:22:48;100470.25;;;23.13;55.62
39177;BME280;24904;52.208;21.192;2023-08-24T17:27:53;100479.11;;;22.98;56.75
39177;BME280;24904;52.208;21.192;2023-08-24T17:32:59;100480.86;;;22.86;57.37
39177;BME280;24904;52.208;21.192;2023-08-24T17:38:06;100478.45;;;22.67;57.58
39177;BME280;24904;52.208;21.192;2023-08-24T17:43:11;100473.95;;;22.50;58.20
39177;BME280;24904;52.208;21.192;2023-08-24T17:48:16;100470.31;;;22.31;59.06
39177;BME280;24904;52.208;21.192;2023-08-24T17:53:21;100462.02;;;22.08;59.45
39177;BME280;24904;52.208;21.192;2023-08-24T17:58:31;100469.98;;;21.89;59.76
39177;BME280;24904;52.208;21.192;2023-08-24T18:03:36;100470.91;;;21.73;60.08
39177;BME280;24904;52.208;21.192;2023-08-24T18:08:41;100475.93;;;21.58;61.09
39177;BME280;24904;52.208;21.192;2023-08-24T18:13:46;100496.85;;;21.44;61.80
39177;BME280;24904;52.208;21.192;2023-08-24T18:18:51;100504.53;;;21.27;62.30
39177;BME280;24904;52.208;21.192;2023-08-24T18:23:56;100507.25;;;21.14;62.65
39177;BME280;24904;52.208;21.192;2023-08-24T18:29:01;100517.42;;;21.01;62.82
39177;BME280;24904;52.208;21.192;2023-08-24T18:34:07;100528.52;;;20.90;63.10
39177;BME280;24904;52.208;21.192;2023-08-24T18:39:12;100527.48;;;20.76;63.56
39177;BME280;24904;52.208;21.192;2023-08-24T18:44:18;100523.91;;;20.64;64.31
39177;BME280;24904;52.208;21.192;2023-08-24T18:49:23;100526.64;;;20.52;64.69
39177;BME280;24904;52.208;21.192;2023-08-24T18:54:28;100524.45;;;20.38;64.92
39177;BME280;24904;52.208;21.192;2023-08-24T18:59:33;100521.80;;;20.26;65.54
39177;BME280;24904;52.208;21.192;2023-08-24T19:04:38;100516.73;;;20.16;65.98
39177;BME280;24904;52.208;21.192;2023-08-24T19:09:43;100506.94;;;20.00;66.47
39177;BME280;24904;52.208;21.192;2023-08-24T19:14:49;100512.19;;;19.88;66.99
39177;BME280;24904;52.208;21.192;2023-08-24T19:19:54;100520.12;;;19.76;67.19
39177;BME280;24904;52.208;21.192;2023-08-24T19:24:59;100520.84;;;19.69;67.67
39177;BME280;24904;52.208;21.192;2023-08-24T19:30:08;100526.59;;;19.59;67.99
39177;BME280;24904;52.208;21.192;2023-08-24T19:35:13;100521.84;;;19.52;68.39
39177;BME280;24904;52.208;21.192;2023-08-24T19:40:18;100511.75;;;19.38;68.48
39177;BME280;24904;52.208;21.192;2023-08-24T19:45:24;100516.91;;;19.24;68.97
39177;BME280;24904;52.208;21.192;2023-08-24T19:50:29;100509.88;;;19.15;69.32
39177;BME280;24904;52.208;21.192;2023-08-24T19:55:34;100506.86;;;19.00;69.62
39177;BME280;24904;52.208;21.192;2023-08-24T20:00:40;100512.14;;;18.91;70.12
39177;BME280;24904;52.208;21.192;2023-08-24T20:05:45;100517.39;;;18.83;70.33
39177;BME280;24904;52.208;21.192;2023-08-24T20:10:51;100512.77;;;18.76;70.69
39177;BME280;24904;52.208;21.192;2023-08-24T20:16:05;100512.61;;;18.67;70.80
39177;BME280;24904;52.208;21.192;2023-08-24T20:21:10;100512.98;;;18.59;71.19
39177;BME280;24904;52.208;21.192;2023-08-24T20:26:15;100510.75;;;18.52;71.51
39177;BME280;24904;52.208;21.192;2023-08-24T20:31:20;100505.23;;;18.42;71.84
39177;BME280;24904;52.208;21.192;2023-08-24T20:36:27;100502.31;;;18.36;72.07
39177;BME280;24904;52.208;21.192;2023-08-24T20:41:32;100510.15;;;18.28;72.32
39177;BME280;24904;52.208;21.192;2023-08-24T20:46:37;100513.71;;;18.25;72.39
39177;BME280;24904;52.208;21.192;2023-08-24T20:51:42;100506.06;;;18.17;72.59
39177;BME280;24904;52.208;21.192;2023-08-24T20:56:47;100499.59;;;18.15;72.94
39177;BME280;24904;52.208;21.192;2023-08-24T21:01:52;100486.98;;;18.10;73.17
39177;BME280;24904;52.208;21.192;2023-08-24T21:06:57;100486.70;;;18.08;73.19
39177;BME280;24904;52.208;21.192;2023-08-24T21:12:02;100484.69;;;17.96;73.14
39177;BME280;24904;52.208;21.192;2023-08-24T21:17:08;100488.55;;;17.89;73.42
39177;BME280;24904;52.208;21.192;2023-08-24T21:22:13;100486.19;;;17.88;73.57
39177;BME280;24904;52.208;21.192;2023-08-24T21:27:18;100472.88;;;17.75;73.58
39177;BME280;24904;52.208;21.192;2023-08-24T21:32:23;100475.79;;;17.67;73.87
39177;BME280;24904;52.208;21.192;2023-08-24T21:37:28;100478.79;;;17.63;73.98
39177;BME280;24904;52.208;21.192;2023-08-24T21:42:33;100473.46;;;17.58;74.31
39177;BME280;24904;52.208;21.192;2023-08-24T21:47:38;100468.30;;;17.54;74.51
39177;BME280;24904;52.208;21.192;2023-08-24T21:52:43;100460.27;;;17.50;74.48
39177;BME280;24904;52.208;21.192;2023-08-24T21:57:48;100462.08;;;17.46;74.63
39177;BME280;24904;52.208;21.192;2023-08-24T22:02:55;100465.52;;;17.39;74.68
39177;BME280;24904;52.208;21.192;2023-08-24T22:08:00;100473.33;;;17.31;74.86
39177;BME280;24904;52.208;21.192;2023-08-24T22:13:06;100476.98;;;17.29;75.02
39177;BME280;24904;52.208;21.192;2023-08-24T22:18:11;100480.95;;;17.24;74.83
39177;BME280;24904;52.208;21.192;2023-08-24T22:23:17;100473.08;;;17.20;74.80
39177;BME280;24904;52.208;21.192;2023-08-24T22:28:22;100461.69;;;17.08;74.54
39177;BME280;24904;52.208;21.192;2023-08-24T22:33:27;100461.30;;;17.02;74.87
39177;BME280;24904;52.208;21.192;2023-08-24T22:38:34;100457.11;;;16.95;75.02
39177;BME280;24904;52.208;21.192;2023-08-24T22:43:40;100451.07;;;16.85;74.76
39177;BME280;24904;52.208;21.192;2023-08-24T22:48:45;100452.05;;;16.76;74.95
39177;BME280;24904;52.208;21.192;2023-08-24T22:53:50;100449.63;;;16.65;74.93
39177;BME280;24904;52.208;21.192;2023-08-24T22:58:55;100448.98;;;16.53;75.02
39177;BME280;24904;52.208;21.192;2023-08-24T23:04:00;100444.55;;;16.45;75.28
39177;BME280;24904;52.208;21.192;2023-08-24T23:09:05;100436.58;;;16.44;75.69
39177;BME280;24904;52.208;21.192;2023-08-24T23:14:10;100425.52;;;16.50;75.57
39177;BME280;24904;52.208;21.192;2023-08-24T23:19:15;100409.65;;;16.43;75.19
39177;BME280;24904;52.208;21.192;2023-08-24T23:24:20;100403.86;;;16.31;74.75
39177;BME280;24904;52.208;21.192;2023-08-24T23:29:25;100400.95;;;16.24;75.11
39177;BME280;24904;52.208;21.192;2023-08-24T23:34:31;100390.87;;;16.19;75.12
39177;BME280;24904;52.208;21.192;2023-08-24T23:39:36;100390.02;;;16.16;75.50
39177;BME280;24904;52.208;21.192;2023-08-24T23:44:41;100394.46;;;16.16;75.80
39177;BME280;24904;52.208;21.192;2023-08-24T23:49:46;100394.59;;;16.20;75.92
39177;BME280;24904;52.208;21.192;2023-08-24T23:54:51;100383.38;;;16.15;76.19
39177;BME280;24904;52.208;21.192;2023-08-24T23:59:57;100376.42;;;16.15;76.71
